createdAt,value
2023-12-30T00:01:02.245Z,1.50
2023-12-30T00:03:29.356Z,1.30
2023-12-30T00:05:56.498Z,2.00
2023-12-30T00:08:23.052Z,1.50
2023-12-30T00:10:49.589Z,1.60
2023-12-30T00:13:16.323Z,1.60
2023-12-30T00:15:43.221Z,1.50
2023-12-30T00:18:09.767Z,1.60
2023-12-30T00:20:36.693Z,2.00
2023-12-30T00:23:03.810Z,1.70
2023-12-30T00:25:30.973Z,1.40
2023-12-30T00:27:57.631Z,1.50
2023-12-30T00:30:25.274Z,1.80
2023-12-30T00:32:52.237Z,1.40
2023-12-30T00:35:19.481Z,1.40
2023-12-30T00:37:46.906Z,1.60
2023-12-30T00:40:14.988Z,1.40
2023-12-30T00:42:43.723Z,1.50
2023-12-30T00:45:10.510Z,1.60
2023-12-30T00:47:36.996Z,1.80
2023-12-30T00:50:04.513Z,1.70
2023-12-30T00:52:31.695Z,1.60
2023-12-30T00:54:58.790Z,1.70
2023-12-30T00:57:25.411Z,1.40
2023-12-30T00:59:51.914Z,1.50
2023-12-30T01:02:19.937Z,1.40
2023-12-30T01:04:47.100Z,1.50
2023-12-30T01:07:14.444Z,1.50
2023-12-30T01:09:42.504Z,1.50
2023-12-30T01:12:08.991Z,1.30
2023-12-30T01:14:35.763Z,1.40
2023-12-30T01:17:02.265Z,1.40
2023-12-30T01:19:28.788Z,1.20
2023-12-30T01:21:55.727Z,1.20
2023-12-30T01:24:22.391Z,1.30
2023-12-30T01:26:49.697Z,1.50
2023-12-30T01:29:17.093Z,1.50
2023-12-30T01:31:44.340Z,1.30
2023-12-30T01:34:11.126Z,1.30
2023-12-30T01:36:38.129Z,1.60
2023-12-30T01:39:04.652Z,1.30
2023-12-30T01:41:33.098Z,1.40
2023-12-30T01:44:00.067Z,1.10
2023-12-30T01:46:27.324Z,1.30
2023-12-30T01:48:55.297Z,1.50
2023-12-30T01:51:25.210Z,1.30
2023-12-30T01:53:55.093Z,1.60
2023-12-30T01:56:23.742Z,1.40
2023-12-30T01:58:51.454Z,1.10
2023-12-30T02:01:20.688Z,1.40
2023-12-30T02:03:48.109Z,1.20
2023-12-30T02:06:14.865Z,1.10
2023-12-30T02:08:42.152Z,1.50
2023-12-30T02:11:09.539Z,1.20
2023-12-30T02:13:36.097Z,1.40
2023-12-30T02:16:03.420Z,1.60
2023-12-30T02:18:30.327Z,1.10
2023-12-30T02:20:57.167Z,1.00
2023-12-30T02:23:23.805Z,1.30
2023-12-30T02:25:50.368Z,1.20
2023-12-30T02:28:17.980Z,1.70
2023-12-30T02:30:44.820Z,1.30
2023-12-30T02:33:11.706Z,1.50
2023-12-30T02:35:38.465Z,1.20
2023-12-30T02:38:06.318Z,1.30
2023-12-30T02:40:32.988Z,1.10
2023-12-30T02:42:59.998Z,1.20
2023-12-30T02:45:27.427Z,1.20
2023-12-30T02:47:54.182Z,1.00
2023-12-30T02:50:21.175Z,1.10
2023-12-30T02:52:47.707Z,0.90
2023-12-30T02:55:14.564Z,1.10
2023-12-30T02:57:48.824Z,2.00
2023-12-30T03:00:19.056Z,1.40
2023-12-30T03:02:46.054Z,1.00
2023-12-30T03:05:13.156Z,1.10
2023-12-30T03:07:39.946Z,1.20
2023-12-30T03:10:08.259Z,1.40
2023-12-30T03:12:35.122Z,1.60
2023-12-30T03:15:01.614Z,1.30
2023-12-30T03:17:28.911Z,1.10
2023-12-30T03:19:56.096Z,1.20
2023-12-30T03:22:23.131Z,1.70
2023-12-30T03:24:49.870Z,1.00
2023-12-30T03:27:16.632Z,1.30
2023-12-30T03:29:44.715Z,1.30
2023-12-30T03:32:11.520Z,1.40
2023-12-30T03:34:38.442Z,1.10
2023-12-30T03:37:05.155Z,1.20
2023-12-30T03:39:31.839Z,1.60
2023-12-30T03:41:58.533Z,1.40
2023-12-30T03:44:25.505Z,1.40
2023-12-30T03:46:52.334Z,1.20
2023-12-30T03:49:19.055Z,1.50
2023-12-30T03:51:46.247Z,1.40
2023-12-30T03:54:13.175Z,1.30
2023-12-30T03:56:41.702Z,1.00
2023-12-30T03:59:08.559Z,1.40
2023-12-30T04:01:35.234Z,1.90
2023-12-30T04:04:01.991Z,1.30
2023-12-30T04:06:28.941Z,1.30
2023-12-30T04:08:55.459Z,1.40
2023-12-30T04:11:21.945Z,1.60
2023-12-30T04:13:49.075Z,1.70
2023-12-30T04:16:15.834Z,1.40
2023-12-30T04:18:42.552Z,1.50
2023-12-30T04:21:09.355Z,1.20
2023-12-30T04:23:36.338Z,1.30
2023-12-30T04:26:03.487Z,1.30
2023-12-30T04:28:30.315Z,1.10
2023-12-30T04:30:57.808Z,1.80
2023-12-30T04:33:24.663Z,1.50
2023-12-30T04:35:51.231Z,1.30
2023-12-30T04:38:19.647Z,1.30
2023-12-30T04:40:47.616Z,0.90
2023-12-30T04:43:15.529Z,1.30
2023-12-30T04:45:42.584Z,1.40
2023-12-30T04:48:09.251Z,1.20
2023-12-30T04:50:37.196Z,1.40
2023-12-30T04:53:04.261Z,1.60
2023-12-30T04:55:31.486Z,1.50
2023-12-30T04:57:58.533Z,1.30
2023-12-30T05:00:25.655Z,1.20
2023-12-30T05:02:52.800Z,1.30
2023-12-30T05:05:19.814Z,1.40
2023-12-30T05:07:46.742Z,1.70
2023-12-30T05:10:13.536Z,1.30
2023-12-30T05:12:40.746Z,1.70
2023-12-30T05:15:08.436Z,1.20
2023-12-30T05:17:36.553Z,1.40
2023-12-30T05:20:04.954Z,1.70
2023-12-30T05:22:31.804Z,1.30
2023-12-30T05:24:58.529Z,1.30
2023-12-30T05:27:25.915Z,1.10
2023-12-30T05:29:52.635Z,1.10
2023-12-30T05:32:19.888Z,1.70
2023-12-30T05:34:46.632Z,1.20
2023-12-30T05:37:13.400Z,1.50
2023-12-30T05:39:40.343Z,1.20
2023-12-30T05:42:07.335Z,1.50
2023-12-30T05:44:34.298Z,1.20
2023-12-30T05:47:00.794Z,1.20
2023-12-30T05:49:28.039Z,1.40
2023-12-30T05:51:54.900Z,1.70
2023-12-30T05:54:22.559Z,1.20
2023-12-30T05:56:49.179Z,1.70
2023-12-30T05:59:16.363Z,1.80
2023-12-30T06:01:46.093Z,1.30
2023-12-30T06:04:15.400Z,1.10
2023-12-30T06:06:43.747Z,1.60
2023-12-30T06:09:11.091Z,1.20
2023-12-30T06:11:37.660Z,1.30
2023-12-30T06:14:05.246Z,1.10
2023-12-30T06:16:32.048Z,1.60
2023-12-30T06:18:59.270Z,1.40
2023-12-30T06:21:26.481Z,1.50
2023-12-30T06:23:53.260Z,1.40
2023-12-30T06:26:19.900Z,1.50
2023-12-30T06:28:46.715Z,1.40
2023-12-30T06:31:13.482Z,1.50
2023-12-30T06:33:41.237Z,1.40
2023-12-30T06:36:08.969Z,1.90
2023-12-30T06:38:36.912Z,1.00
2023-12-30T06:41:07.349Z,1.60
2023-12-30T06:43:34.289Z,1.20
2023-12-30T06:46:04.948Z,1.50
2023-12-30T06:48:32.117Z,1.50
2023-12-30T06:51:02.030Z,1.60
2023-12-30T06:53:31.321Z,1.80
2023-12-30T06:56:10.146Z,1.70
2023-12-30T06:58:37.586Z,1.60
2023-12-30T07:01:06.303Z,1.80
2023-12-30T07:03:33.590Z,1.30
2023-12-30T07:06:00.148Z,1.80
2023-12-30T07:08:26.878Z,1.60
2023-12-30T07:10:53.778Z,1.60
2023-12-30T07:13:20.542Z,1.50
2023-12-30T07:15:48.688Z,1.30
2023-12-30T07:18:15.318Z,1.70
2023-12-30T07:20:42.880Z,2.00
2023-12-30T07:23:09.643Z,1.50
2023-12-30T07:25:37.179Z,1.70
2023-12-30T07:28:05.055Z,1.30
2023-12-30T07:32:58.755Z,1.50
2023-12-30T07:35:25.614Z,1.90
2023-12-30T07:37:52.103Z,1.70
2023-12-30T07:40:18.682Z,1.40
2023-12-30T07:42:46.195Z,1.70
2023-12-30T07:45:12.831Z,1.60
2023-12-30T07:47:40.825Z,1.80
2023-12-30T07:50:08.452Z,1.40
2023-12-30T07:52:35.783Z,1.60
2023-12-30T07:55:02.800Z,1.50
2023-12-30T07:57:29.788Z,1.80
2023-12-30T07:59:56.710Z,1.30
2023-12-30T08:02:23.722Z,1.50
2023-12-30T08:04:50.405Z,1.60
2023-12-30T08:07:18.135Z,1.70
2023-12-30T08:12:11.351Z,1.60
2023-12-30T08:14:39.287Z,1.30
2023-12-30T08:17:05.974Z,1.40
2023-12-30T08:19:33.098Z,1.20
2023-12-30T08:22:00.070Z,1.50
2023-12-30T08:24:29.817Z,1.40
2023-12-30T08:26:56.747Z,1.10
2023-12-30T08:29:23.379Z,1.10
2023-12-30T08:31:50.736Z,1.60
2023-12-30T08:34:17.949Z,1.40
2023-12-30T08:36:45.241Z,1.30
2023-12-30T08:39:12.904Z,1.40
2023-12-30T08:41:42.728Z,1.10
2023-12-30T08:44:09.504Z,1.50
2023-12-30T08:46:37.753Z,1.60
2023-12-30T08:49:07.399Z,1.30
2023-12-30T08:51:36.177Z,1.60
2023-12-30T08:54:02.854Z,1.40
2023-12-30T08:56:35.643Z,1.20
2023-12-30T08:59:02.941Z,1.40
2023-12-30T09:01:30.550Z,1.20
2023-12-30T09:03:57.651Z,1.30
2023-12-30T09:06:24.690Z,1.40
2023-12-30T09:08:51.698Z,1.50
2023-12-30T09:11:23.465Z,1.20
2023-12-30T09:13:51.441Z,1.50
2023-12-30T09:16:18.919Z,1.90
2023-12-30T09:18:46.304Z,1.50
2023-12-30T09:21:14.052Z,1.50
2023-12-30T09:23:41.929Z,1.70
2023-12-30T09:26:08.686Z,2.50
2023-12-30T09:28:35.943Z,2.30
2023-12-30T09:31:03.632Z,2.40
2023-12-30T09:33:31.001Z,2.20
2023-12-30T09:35:59.342Z,1.70
2023-12-30T09:38:26.997Z,2.30
2023-12-30T09:40:55.957Z,1.80
2023-12-30T09:43:28.248Z,2.00
2023-12-30T09:45:57.112Z,1.80
2023-12-30T09:48:28.772Z,1.80
2023-12-30T09:50:57.400Z,1.80
2023-12-30T09:53:29.099Z,2.20
2023-12-30T09:55:56.709Z,1.70
2023-12-30T10:00:51.561Z,1.40
2023-12-30T10:03:20.362Z,2.10
2023-12-30T10:05:48.556Z,1.70
2023-12-30T10:08:16.862Z,1.80
2023-12-30T10:10:46.894Z,1.80
2023-12-30T10:13:16.194Z,3.70
2023-12-30T10:15:43.598Z,3.00
2023-12-30T10:18:11.671Z,2.50
2023-12-30T10:20:42.002Z,6.80
2023-12-30T10:23:08.969Z,4.20
2023-12-30T10:25:36.088Z,2.10
2023-12-30T10:28:03.433Z,11.70
2023-12-30T10:30:32.379Z,3.30
2023-12-30T10:33:15.073Z,2.00
2023-12-30T10:35:44.350Z,3.10
2023-12-30T10:38:14.054Z,6.70
2023-12-30T10:40:42.260Z,2.80
2023-12-30T10:43:10.033Z,2.40
2023-12-30T10:45:37.534Z,7.20
2023-12-30T10:48:07.601Z,4.10
2023-12-30T10:50:40.217Z,3.90
2023-12-30T10:53:11.974Z,2.70
2023-12-30T10:55:51.605Z,4.60
2023-12-30T10:58:26.261Z,10.50
2023-12-30T11:00:58.467Z,4.10
2023-12-30T11:03:27.634Z,4.40
2023-12-30T11:06:08.457Z,5.50
2023-12-30T11:08:36.056Z,1.80
2023-12-30T11:11:05.302Z,1.80
2023-12-30T11:13:36.539Z,6.70
2023-12-30T11:16:17.359Z,2.80
2023-12-30T11:18:52.297Z,2.00
2023-12-30T11:21:39.706Z,1.80
2023-12-30T11:24:09.096Z,3.40
2023-12-30T11:26:39.284Z,4.70
2023-12-30T11:29:11.497Z,3.20
2023-12-30T11:31:42.534Z,4.40
2023-12-30T11:34:11.440Z,3.20
2023-12-30T11:36:38.984Z,3.00
2023-12-30T11:41:35.854Z,3.10
2023-12-30T11:44:07.220Z,2.30
2023-12-30T11:46:34.973Z,2.40
2023-12-30T11:49:01.967Z,1.10
2023-12-30T11:51:33.555Z,1.70
2023-12-30T11:54:06.269Z,1.70
2023-12-30T11:56:34.057Z,1.80
2023-12-30T11:59:01.972Z,2.80
2023-12-30T12:01:29.354Z,2.00
2023-12-30T12:03:57.590Z,2.10
2023-12-30T12:06:24.398Z,1.90
2023-12-30T12:08:51.114Z,1.60
2023-12-30T12:11:17.893Z,2.20
2023-12-30T12:13:46.814Z,1.70
2023-12-30T12:16:14.032Z,1.90
2023-12-30T12:18:41.800Z,1.50
2023-12-30T12:21:16.129Z,1.40
2023-12-30T12:23:43.525Z,2.20
2023-12-30T12:26:10.718Z,2.10
2023-12-30T12:28:37.533Z,1.30
2023-12-30T12:31:07.421Z,1.90
2023-12-30T12:33:36.499Z,1.40
2023-12-30T12:36:04.064Z,1.80
2023-12-30T12:40:57.461Z,1.80
2023-12-30T12:43:24.193Z,2.20
2023-12-30T12:45:51.623Z,1.70
2023-12-30T12:50:44.861Z,1.50
2023-12-30T12:53:11.610Z,1.60
2023-12-30T12:55:38.498Z,1.70
2023-12-30T12:58:05.096Z,1.40
2023-12-30T13:00:33.078Z,1.30
2023-12-30T13:03:02.047Z,1.40
2023-12-30T13:05:29.278Z,1.40
2023-12-30T13:07:57.357Z,1.00
2023-12-30T13:13:01.311Z,1.90
2023-12-30T13:15:28.368Z,1.40
2023-12-30T13:17:55.413Z,1.90
2023-12-30T13:20:22.605Z,1.80
2023-12-30T13:22:57.511Z,2.10
2023-12-30T13:25:31.387Z,2.50
2023-12-30T13:27:59.948Z,1.60
2023-12-30T13:30:27.212Z,2.00
2023-12-30T13:33:02.605Z,1.30
2023-12-30T13:35:38.929Z,2.50
2023-12-30T13:38:12.897Z,1.50
2023-12-30T13:40:43.311Z,2.80
2023-12-30T13:43:10.883Z,1.30
2023-12-30T13:45:46.800Z,1.50
2023-12-30T13:48:38.984Z,1.80
2023-12-30T13:51:08.402Z,1.50
2023-12-30T13:53:35.065Z,1.20
2023-12-30T13:56:07.180Z,1.50
2023-12-30T13:58:35.177Z,1.80
2023-12-30T14:01:02.085Z,1.50
2023-12-30T14:03:29.731Z,1.40
2023-12-30T14:05:57.375Z,1.10
2023-12-30T14:08:37.429Z,1.60
2023-12-30T14:11:09.048Z,1.90
2023-12-30T14:13:37.200Z,1.30
2023-12-30T14:18:32.904Z,1.60
2023-12-30T14:20:59.969Z,1.70
2023-12-30T14:23:28.861Z,1.90
2023-12-30T14:25:55.847Z,1.80
2023-12-30T14:28:22.825Z,1.50
2023-12-30T14:30:50.519Z,1.30
2023-12-30T14:33:17.513Z,1.80
2023-12-30T14:35:44.647Z,2.20
2023-12-30T14:38:11.245Z,1.80
2023-12-30T14:40:37.820Z,1.50
2023-12-30T14:43:05.051Z,2.10
2023-12-30T14:45:32.286Z,1.60
2023-12-30T14:48:01.082Z,1.80
2023-12-30T14:50:28.038Z,1.40
2023-12-30T14:52:54.990Z,1.60
2023-12-30T14:55:21.554Z,1.40
2023-12-30T14:57:49.776Z,1.70
2023-12-30T15:00:18.153Z,1.90
2023-12-30T15:02:45.805Z,1.80
2023-12-30T15:05:16.817Z,1.50
2023-12-30T15:07:45.607Z,1.60
2023-12-30T15:10:14.950Z,1.90
2023-12-30T15:12:44.684Z,1.60
2023-12-30T15:15:13.632Z,1.90
2023-12-30T15:17:40.542Z,2.30
2023-12-30T15:20:09.073Z,1.60
2023-12-30T15:22:36.831Z,1.60
2023-12-30T15:25:04.324Z,1.90
2023-12-30T15:27:32.715Z,2.10
2023-12-30T15:29:59.414Z,1.70
2023-12-30T15:32:26.284Z,1.40
2023-12-30T15:34:53.359Z,1.50
2023-12-30T15:37:20.183Z,1.90
2023-12-30T15:39:46.985Z,1.50
2023-12-30T15:42:13.861Z,1.60
2023-12-30T15:44:40.932Z,1.80
2023-12-30T15:47:10.982Z,1.50
2023-12-30T15:49:42.728Z,1.60
2023-12-30T15:52:11.634Z,1.60
2023-12-30T15:54:39.815Z,1.70
2023-12-30T15:57:06.982Z,1.90
2023-12-30T15:59:33.883Z,1.80
2023-12-30T16:02:02.276Z,1.70
2023-12-30T16:04:29.285Z,2.50
2023-12-30T16:06:57.098Z,1.70
2023-12-30T16:09:23.721Z,1.90
2023-12-30T16:11:50.765Z,2.00
2023-12-30T16:16:46.668Z,1.40
2023-12-30T16:19:16.585Z,1.50
2023-12-30T16:21:44.603Z,1.60
2023-12-30T16:24:12.966Z,1.70
2023-12-30T16:26:39.901Z,1.70
2023-12-30T16:29:07.062Z,1.50
2023-12-30T16:31:33.823Z,1.60
2023-12-30T16:34:00.752Z,1.60
2023-12-30T16:36:27.549Z,1.50
2023-12-30T16:38:55.593Z,1.70
2023-12-30T16:41:23.995Z,1.80
2023-12-30T16:43:51.400Z,1.50
2023-12-30T16:46:22.313Z,1.50
2023-12-30T16:48:49.115Z,1.60
2023-12-30T16:51:16.458Z,1.70
2023-12-30T16:53:44.791Z,1.50
2023-12-30T16:56:11.501Z,1.70
2023-12-30T16:58:40.647Z,1.50
2023-12-30T17:01:07.908Z,2.00
2023-12-30T17:03:34.545Z,1.90
2023-12-30T17:06:02.072Z,2.10
2023-12-30T17:10:56.399Z,1.70
2023-12-30T17:13:31.178Z,1.90
2023-12-30T17:16:02.758Z,1.70
2023-12-30T17:18:29.546Z,1.40
2023-12-30T17:20:56.563Z,1.50
2023-12-30T17:23:23.935Z,2.00
2023-12-30T17:25:50.809Z,2.10
2023-12-30T17:28:18.273Z,1.80
2023-12-30T17:30:45.101Z,2.30
2023-12-30T17:33:13.138Z,1.90
2023-12-30T17:35:40.391Z,2.40
2023-12-30T17:38:07.179Z,2.40
2023-12-30T17:40:34.710Z,3.10
2023-12-30T17:43:01.974Z,2.70
2023-12-30T17:45:30.674Z,2.30
2023-12-30T17:47:57.772Z,2.00
2023-12-30T17:50:24.721Z,2.70
2023-12-30T17:52:51.341Z,4.20
2023-12-30T17:55:17.994Z,7.30
2023-12-30T17:57:46.364Z,7.60
2023-12-30T18:00:13.645Z,5.40
2023-12-30T18:02:40.915Z,4.90
2023-12-30T18:05:08.239Z,3.60
2023-12-30T18:07:35.208Z,3.00
2023-12-30T18:10:02.891Z,3.10
2023-12-30T18:12:29.631Z,2.70
2023-12-30T18:14:56.341Z,2.50
2023-12-30T18:17:23.722Z,2.90
2023-12-30T18:19:50.838Z,3.00
2023-12-30T18:22:18.030Z,3.10
2023-12-30T18:24:45.192Z,2.20
2023-12-30T18:27:12.888Z,2.10
2023-12-30T18:32:08.630Z,2.50
2023-12-30T18:34:35.562Z,2.40
2023-12-30T18:37:02.632Z,2.50
2023-12-30T18:39:30.222Z,2.20
2023-12-30T18:41:56.829Z,2.60
2023-12-30T18:44:23.719Z,2.40
2023-12-30T18:46:50.355Z,2.60
2023-12-30T18:49:17.866Z,2.70
2023-12-30T18:54:11.524Z,2.40
2023-12-30T18:56:38.211Z,2.30
2023-12-30T18:59:06.127Z,2.60
2023-12-30T19:04:03.274Z,2.60
2023-12-30T19:06:31.075Z,2.60
2023-12-30T19:08:57.642Z,2.50
2023-12-30T19:11:24.538Z,2.80
2023-12-30T19:13:51.783Z,2.50
2023-12-30T19:16:18.876Z,2.60
2023-12-30T19:18:45.556Z,2.70
2023-12-30T19:21:12.328Z,2.90
2023-12-30T19:23:38.850Z,2.90
2023-12-30T19:26:05.752Z,3.60
2023-12-30T19:28:32.734Z,3.10
2023-12-30T19:31:00.028Z,3.30
2023-12-30T19:33:27.928Z,3.90
2023-12-30T19:35:55.111Z,3.80
2023-12-30T19:38:22.443Z,5.60
2023-12-30T19:40:51.240Z,6.00
2023-12-30T19:43:19.585Z,3.00
2023-12-30T19:45:46.601Z,3.00
2023-12-30T19:48:13.738Z,2.50
2023-12-30T19:50:44.316Z,2.30
2023-12-30T19:53:18.170Z,3.10
2023-12-30T19:55:47.002Z,2.60
2023-12-30T19:58:14.074Z,3.70
2023-12-30T20:00:41.685Z,2.90
2023-12-30T20:03:12.015Z,2.50
2023-12-30T20:05:38.843Z,2.80
2023-12-30T20:08:06.517Z,2.60
2023-12-30T20:10:33.908Z,2.50
2023-12-30T20:13:03.266Z,3.50
2023-12-30T20:15:30.140Z,3.00
2023-12-30T20:17:57.114Z,3.20
2023-12-30T20:20:25.599Z,2.30
2023-12-30T20:22:52.293Z,2.20
2023-12-30T20:25:21.726Z,2.00
2023-12-30T20:27:48.462Z,2.70
2023-12-30T20:30:17.412Z,2.70
2023-12-30T20:32:44.224Z,2.80
2023-12-30T20:35:10.959Z,2.70
2023-12-30T20:37:38.054Z,2.60
2023-12-30T20:40:07.171Z,2.60
2023-12-30T20:42:34.671Z,2.50
2023-12-30T20:45:01.711Z,2.90
2023-12-30T20:47:28.825Z,2.70
2023-12-30T20:49:55.366Z,2.60
2023-12-30T20:52:22.370Z,2.30
2023-12-30T20:54:49.285Z,2.60
2023-12-30T20:57:16.078Z,2.70
2023-12-30T20:59:43.269Z,3.20
2023-12-30T21:02:09.838Z,2.70
2023-12-30T21:04:38.606Z,2.50
2023-12-30T21:07:06.760Z,2.90
2023-12-30T21:09:34.845Z,2.70
2023-12-30T21:12:02.091Z,2.60
2023-12-30T21:14:28.726Z,2.90
2023-12-30T21:16:56.057Z,3.70
2023-12-30T21:19:23.361Z,3.90
2023-12-30T21:24:17.013Z,4.80
2023-12-30T21:26:43.983Z,4.80
2023-12-30T21:29:10.514Z,4.90
2023-12-30T21:31:37.786Z,5.00
2023-12-30T21:34:04.789Z,5.20
2023-12-30T21:36:31.832Z,5.30
2023-12-30T21:38:58.434Z,5.00
2023-12-30T21:41:25.027Z,4.90
2023-12-30T21:43:51.809Z,4.50
2023-12-30T21:46:18.813Z,5.20
2023-12-30T21:48:45.774Z,4.80
2023-12-30T21:51:14.510Z,4.90
2023-12-30T21:53:45.522Z,5.00
2023-12-30T21:56:12.399Z,4.40
2023-12-30T21:58:39.391Z,5.00
2023-12-30T22:01:06.649Z,5.50
2023-12-30T22:03:33.486Z,5.00
2023-12-30T22:06:00.183Z,4.80
2023-12-30T22:08:27.742Z,4.50
2023-12-30T22:10:54.854Z,4.00
2023-12-30T22:13:21.488Z,4.70
2023-12-30T22:15:48.169Z,4.30
2023-12-30T22:18:16.525Z,4.50
2023-12-30T22:20:43.181Z,4.30
2023-12-30T22:23:12.702Z,4.10
2023-12-30T22:25:42.679Z,4.40
2023-12-30T22:28:09.481Z,4.00
2023-12-30T22:30:36.384Z,4.10
2023-12-30T22:33:03.388Z,4.30
2023-12-30T22:35:31.203Z,3.90
2023-12-30T22:37:57.852Z,3.40
2023-12-30T22:40:24.628Z,3.50
2023-12-30T22:42:52.330Z,3.40
2023-12-30T22:45:19.070Z,3.50
2023-12-30T22:47:45.761Z,3.90
2023-12-30T22:50:13.522Z,3.20
2023-12-30T22:52:41.106Z,3.60
2023-12-30T22:55:09.130Z,3.00
2023-12-30T22:57:36.573Z,3.60
2023-12-30T23:00:14.605Z,3.80
2023-12-30T23:02:41.180Z,3.80
2023-12-30T23:05:09.613Z,3.10
2023-12-30T23:07:37.299Z,3.50
2023-12-30T23:10:05.679Z,3.40
2023-12-30T23:12:32.770Z,3.40
2023-12-30T23:14:59.922Z,3.70
2023-12-30T23:17:26.821Z,3.60
2023-12-30T23:19:54.267Z,3.80
2023-12-30T23:22:21.152Z,3.50
2023-12-30T23:24:47.907Z,3.70
2023-12-30T23:27:14.885Z,4.00
2023-12-30T23:29:42.510Z,3.80
2023-12-30T23:32:09.278Z,3.50
2023-12-30T23:34:43.178Z,3.60
2023-12-30T23:37:16.891Z,3.50
2023-12-30T23:42:13.204Z,3.30
2023-12-30T23:44:40.304Z,3.30
2023-12-30T23:47:07.104Z,3.40
2023-12-30T23:49:33.812Z,3.50
2023-12-30T23:52:01.803Z,3.90
2023-12-30T23:54:28.680Z,3.70
2023-12-30T23:56:55.185Z,3.20
2023-12-30T23:59:22.092Z,3.20
